createdAt,value
2023-02-12T00:00:08.111Z,46.62
2023-02-12T00:02:42.180Z,49.23
2023-02-12T00:05:09.673Z,47.72
2023-02-12T00:07:36.821Z,48.01
2023-02-12T00:10:04.045Z,46.64
2023-02-12T00:12:31.469Z,45.82
2023-02-12T00:14:58.637Z,47.21
2023-02-12T00:17:25.823Z,47.40
2023-02-12T00:19:53.248Z,47.92
2023-02-12T00:22:20.396Z,48.85
2023-02-12T00:24:47.614Z,48.79
2023-02-12T00:27:15.038Z,48.93
2023-02-12T00:29:42.186Z,50.09
2023-02-12T00:32:09.411Z,51.30
2023-02-12T00:34:36.856Z,50.94
2023-02-12T00:37:04.041Z,50.58
2023-02-12T00:39:31.381Z,51.25
2023-02-12T00:41:58.792Z,50.82
2023-02-12T00:44:25.958Z,49.01
2023-02-12T00:46:53.170Z,48.58
2023-02-12T00:49:20.562Z,50.01
2023-02-12T00:51:50.172Z,49.83
2023-02-12T00:54:18.295Z,49.01
2023-02-12T00:56:45.752Z,52.94
2023-02-12T00:59:12.918Z,52.89
2023-02-12T01:01:40.138Z,51.28
2023-02-12T01:04:07.602Z,53.48
2023-02-12T01:06:34.736Z,54.28
2023-02-12T01:09:02.092Z,54.13
2023-02-12T01:11:29.499Z,54.49
2023-02-12T01:13:56.662Z,53.38
2023-02-12T01:16:24.694Z,53.90
2023-02-12T01:18:55.495Z,54.79
2023-02-12T01:21:24.069Z,53.71
2023-02-12T01:23:51.556Z,53.65
2023-02-12T01:26:19.704Z,56.25
2023-02-12T01:28:51.326Z,56.93
2023-02-12T01:31:19.747Z,57.33
2023-02-12T01:33:50.585Z,56.88
2023-02-12T01:36:17.877Z,57.33
2023-02-12T01:38:47.117Z,57.06
2023-02-12T01:41:21.428Z,56.64
2023-02-12T01:44:08.065Z,57.85
2023-02-12T01:46:35.328Z,59.58
2023-02-12T01:49:03.908Z,60.05
2023-02-12T01:51:31.924Z,59.40
2023-02-12T01:53:59.566Z,59.57
2023-02-12T01:56:27.200Z,59.19
2023-02-12T01:58:55.647Z,58.72
2023-02-12T02:01:24.888Z,59.00
2023-02-12T02:03:54.107Z,58.50
2023-02-12T02:06:23.028Z,59.91
2023-02-12T02:08:50.211Z,60.07
2023-02-12T02:11:36.324Z,61.99
2023-02-12T02:14:23.012Z,62.34
2023-02-12T02:16:53.841Z,62.15
2023-02-12T02:19:20.966Z,63.57
2023-02-12T02:22:06.825Z,61.83
2023-02-12T02:24:37.365Z,61.14
2023-02-12T02:27:10.651Z,61.42
2023-02-12T02:29:44.385Z,61.28
2023-02-12T02:32:17.105Z,62.09
2023-02-12T02:34:56.895Z,61.89
2023-02-12T02:37:28.030Z,61.50
2023-02-12T02:39:56.240Z,60.63
2023-02-12T02:42:23.348Z,61.61
2023-02-12T02:44:54.783Z,62.61
2023-02-12T02:47:24.416Z,62.67
2023-02-12T02:49:59.089Z,60.15
2023-02-12T02:52:28.996Z,59.92
2023-02-12T02:54:56.738Z,59.33
2023-02-12T02:57:25.405Z,58.32
2023-02-12T02:59:54.856Z,59.01
2023-02-12T03:02:23.744Z,55.96
2023-02-12T03:04:52.379Z,53.51
2023-02-12T03:07:27.517Z,54.42
2023-02-12T03:09:57.355Z,54.04
2023-02-12T03:12:29.117Z,51.92
2023-02-12T03:15:14.949Z,52.53
2023-02-12T03:17:43.400Z,51.78
2023-02-12T03:20:24.571Z,50.75
2023-02-12T03:23:01.738Z,50.36
2023-02-12T03:25:31.186Z,52.02
2023-02-12T03:28:04.200Z,50.57
2023-02-12T03:30:35.293Z,51.29
2023-02-12T03:33:10.299Z,53.16
2023-02-12T03:35:57.625Z,53.32
2023-02-12T03:38:28.854Z,59.05
2023-02-12T03:40:56.839Z,53.32
2023-02-12T03:43:25.702Z,54.88
2023-02-12T03:45:56.309Z,53.09
2023-02-12T03:48:23.647Z,54.09
2023-02-12T03:50:56.624Z,54.73
2023-02-12T03:53:25.033Z,53.43
2023-02-12T03:55:55.223Z,56.93
2023-02-12T03:58:23.682Z,53.57
2023-02-12T04:00:51.188Z,52.17
2023-02-12T04:03:18.682Z,52.69
2023-02-12T04:05:45.839Z,53.23
2023-02-12T04:08:13.070Z,52.98
2023-02-12T04:10:43.696Z,53.13
2023-02-12T04:13:19.344Z,52.71
2023-02-12T04:16:04.215Z,52.17
2023-02-12T04:18:41.507Z,52.72
2023-02-12T04:21:11.940Z,52.58
2023-02-12T04:23:39.000Z,52.31
2023-02-12T04:26:11.525Z,51.87
2023-02-12T04:28:42.067Z,51.39
2023-02-12T04:31:12.276Z,51.52
2023-02-12T04:33:45.210Z,51.63
2023-02-12T04:36:13.849Z,51.67
2023-02-12T04:38:42.211Z,52.42
2023-02-12T04:41:09.500Z,52.08
2023-02-12T04:43:37.244Z,51.10
2023-02-12T04:46:05.753Z,51.82
2023-02-12T04:48:34.592Z,51.19
2023-02-12T04:51:01.831Z,51.27
2023-02-12T04:53:29.274Z,50.54
2023-02-12T04:55:56.853Z,51.39
2023-02-12T04:58:24.259Z,51.32
2023-02-12T05:00:51.687Z,50.17
2023-02-12T05:03:18.855Z,50.81
2023-02-12T05:05:46.000Z,50.35
2023-02-12T05:08:13.371Z,50.90
2023-02-12T05:10:40.538Z,52.19
2023-02-12T05:13:07.704Z,51.05
2023-02-12T05:15:35.174Z,51.04
2023-02-12T05:18:02.341Z,51.63
2023-02-12T05:20:29.465Z,51.26
2023-02-12T05:22:56.840Z,51.66
2023-02-12T05:25:24.025Z,51.15
2023-02-12T05:27:51.150Z,50.76
2023-02-12T05:30:18.651Z,51.39
2023-02-12T05:32:45.885Z,50.08
2023-02-12T05:35:13.014Z,50.05
2023-02-12T05:37:40.415Z,51.24
2023-02-12T05:40:08.878Z,51.97
2023-02-12T05:42:36.048Z,52.25
2023-02-12T05:45:03.513Z,51.93
2023-02-12T05:47:30.745Z,53.11
2023-02-12T05:49:57.928Z,52.74
2023-02-12T05:52:25.362Z,52.49
2023-02-12T05:54:52.573Z,53.23
2023-02-12T05:57:19.747Z,52.90
2023-02-12T05:59:47.161Z,53.95
2023-02-12T06:02:14.355Z,54.37
2023-02-12T06:04:41.900Z,54.13
2023-02-12T06:07:09.020Z,53.78
2023-02-12T06:09:36.358Z,54.50
2023-02-12T06:12:03.904Z,54.06
2023-02-12T06:14:32.081Z,54.09
2023-02-12T06:16:59.425Z,54.25
2023-02-12T06:19:26.867Z,55.44
2023-02-12T06:21:53.995Z,55.38
2023-02-12T06:24:21.159Z,54.18
2023-02-12T06:26:49.561Z,53.59
2023-02-12T06:29:16.776Z,52.97
2023-02-12T06:31:44.122Z,54.69
2023-02-12T06:34:12.505Z,53.72
2023-02-12T06:36:40.550Z,53.19
2023-02-12T06:39:07.788Z,53.54
2023-02-12T06:41:35.220Z,53.20
2023-02-12T06:44:02.393Z,53.10
2023-02-12T06:46:29.806Z,52.91
2023-02-12T06:48:58.534Z,53.56
2023-02-12T06:51:26.147Z,53.78
2023-02-12T06:53:53.688Z,52.07
2023-02-12T06:56:21.770Z,55.46
2023-02-12T06:58:55.802Z,53.32
2023-02-12T07:01:24.738Z,52.99
2023-02-12T07:03:53.054Z,53.09
2023-02-12T07:06:20.590Z,53.02
2023-02-12T07:08:48.140Z,53.68
2023-02-12T07:11:15.565Z,53.18
2023-02-12T07:13:43.109Z,53.72
2023-02-12T07:16:15.023Z,52.16
2023-02-12T07:18:42.383Z,52.66
2023-02-12T07:21:09.793Z,50.40
2023-02-12T07:23:37.424Z,48.52
2023-02-12T07:26:13.794Z,48.87
2023-02-12T07:28:41.647Z,49.53
2023-02-12T07:31:13.207Z,48.99
2023-02-12T07:33:41.130Z,47.61
2023-02-12T07:36:09.746Z,49.47
2023-02-12T07:38:39.819Z,48.23
2023-02-12T07:41:27.640Z,46.69
2023-02-12T07:43:56.713Z,46.69
2023-02-12T07:46:29.641Z,45.49
2023-02-12T07:48:57.591Z,45.33
2023-02-12T07:51:26.245Z,43.67
2023-02-12T07:53:53.541Z,42.57
2023-02-12T07:56:21.784Z,39.00
2023-02-12T07:58:50.683Z,38.52
2023-02-12T08:01:18.095Z,38.75
2023-02-12T08:03:45.805Z,40.35
2023-02-12T08:06:23.117Z,40.04
2023-02-12T08:08:51.273Z,39.58
2023-02-12T08:11:18.826Z,40.41
2023-02-12T08:13:46.009Z,40.69
2023-02-12T08:16:14.529Z,40.89
2023-02-12T08:18:41.728Z,41.56
2023-02-12T08:21:10.003Z,43.18
2023-02-12T08:23:37.447Z,42.25
2023-02-12T08:26:15.023Z,40.96
2023-02-12T08:28:46.608Z,40.01
2023-02-12T08:31:14.970Z,39.08
2023-02-12T08:33:42.443Z,37.00
2023-02-12T08:36:14.610Z,37.47
2023-02-12T08:38:42.271Z,35.41
2023-02-12T08:41:10.486Z,35.50
2023-02-12T08:43:37.845Z,37.68
2023-02-12T08:46:06.216Z,36.94
2023-02-12T08:48:33.668Z,39.20
2023-02-12T08:51:19.573Z,39.83
2023-02-12T08:53:47.501Z,39.75
2023-02-12T08:56:15.841Z,39.47
2023-02-12T08:58:43.012Z,39.83
2023-02-12T09:01:11.277Z,39.99
2023-02-12T09:03:38.731Z,40.31
2023-02-12T09:06:06.555Z,40.04
2023-02-12T09:08:33.962Z,38.73
2023-02-12T09:11:04.167Z,39.34
2023-02-12T09:13:31.358Z,39.38
2023-02-12T09:16:00.226Z,40.07
2023-02-12T09:18:27.408Z,40.36
2023-02-12T09:20:54.627Z,39.26
2023-02-12T09:23:22.035Z,38.74
2023-02-12T09:25:49.166Z,36.65
2023-02-12T09:28:16.429Z,33.85
2023-02-12T09:30:43.992Z,33.03
2023-02-12T09:33:11.871Z,33.45
2023-02-12T09:35:39.432Z,32.70
2023-02-12T09:38:07.047Z,29.71
2023-02-12T09:40:53.017Z,28.46
2023-02-12T09:43:26.202Z,26.12
2023-02-12T09:45:56.251Z,25.11
2023-02-12T09:48:28.717Z,25.21
2023-02-12T09:50:56.919Z,26.77
2023-02-12T09:53:25.422Z,27.37
2023-02-12T09:55:52.559Z,26.79
2023-02-12T09:58:29.176Z,27.29
2023-02-12T10:00:56.646Z,28.52
2023-02-12T10:03:24.123Z,28.57
2023-02-12T10:05:52.127Z,27.77
2023-02-12T10:08:42.558Z,28.63
2023-02-12T10:11:10.084Z,28.51
2023-02-12T10:13:55.853Z,28.70
2023-02-12T10:16:23.329Z,28.84
2023-02-12T10:18:53.707Z,29.75
2023-02-12T10:21:39.557Z,30.60
2023-02-12T10:24:07.113Z,31.27
2023-02-12T10:26:44.705Z,31.42
2023-02-12T10:29:29.388Z,32.45
2023-02-12T10:31:59.702Z,31.55
2023-02-12T10:34:30.734Z,32.17
2023-02-12T10:37:09.783Z,32.60
2023-02-12T10:39:38.137Z,32.97
2023-02-12T10:42:43.953Z,32.38
2023-02-12T10:45:13.581Z,31.32
2023-02-12T10:47:40.855Z,32.06
2023-02-12T10:50:20.610Z,32.23
2023-02-12T10:52:53.269Z,33.08
2023-02-12T10:55:26.352Z,33.35
2023-02-12T10:57:54.073Z,33.15
2023-02-12T11:00:24.764Z,34.01
2023-02-12T11:03:04.616Z,33.98
2023-02-12T11:05:34.883Z,33.99
2023-02-12T11:08:03.508Z,33.38
2023-02-12T11:10:34.744Z,34.66
2023-02-12T11:13:02.344Z,34.95
2023-02-12T11:15:46.655Z,35.85
2023-02-12T11:18:22.161Z,34.43
2023-02-12T11:21:08.433Z,35.55
2023-02-12T11:23:37.789Z,34.90
2023-02-12T11:26:06.459Z,35.30
2023-02-12T11:28:36.007Z,36.23
2023-02-12T11:31:23.947Z,36.28
2023-02-12T11:34:06.240Z,35.66
2023-02-12T11:36:35.053Z,35.49
2023-02-12T11:39:02.324Z,35.45
2023-02-12T11:41:36.460Z,35.28
2023-02-12T11:44:11.834Z,35.39
2023-02-12T11:46:39.257Z,36.34
2023-02-12T11:49:06.713Z,36.02
2023-02-12T11:51:34.082Z,35.14
2023-02-12T11:54:02.223Z,34.95
2023-02-12T11:56:45.416Z,34.89
2023-02-12T11:59:16.826Z,35.98
2023-02-12T12:01:44.437Z,35.38
2023-02-12T12:04:13.268Z,37.07
2023-02-12T12:06:41.496Z,36.25
2023-02-12T12:09:11.725Z,36.37
2023-02-12T12:11:59.434Z,37.38
2023-02-12T12:14:27.797Z,37.13
2023-02-12T12:17:23.709Z,36.87
2023-02-12T12:20:10.375Z,36.79
2023-02-12T12:22:41.070Z,36.56
2023-02-12T12:25:14.366Z,36.38
2023-02-12T12:28:03.392Z,35.35
2023-02-12T12:30:51.419Z,36.20
2023-02-12T12:33:38.091Z,35.60
2023-02-12T12:36:14.460Z,36.09
2023-02-12T12:38:51.100Z,35.83
2023-02-12T12:41:22.416Z,35.26
2023-02-12T12:44:02.050Z,35.09
2023-02-12T12:46:35.561Z,35.90
2023-02-12T12:49:03.014Z,35.42
2023-02-12T12:51:30.300Z,36.14
2023-02-12T12:54:03.613Z,35.45
2023-02-12T12:56:37.815Z,35.01
2023-02-12T12:59:23.929Z,36.20
2023-02-12T13:02:03.980Z,35.90
2023-02-12T13:04:37.793Z,35.16
2023-02-12T13:07:11.521Z,34.94
2023-02-12T13:09:43.429Z,37.30
2023-02-12T13:12:23.258Z,37.29
2023-02-12T13:14:56.095Z,36.28
2023-02-12T13:17:26.150Z,35.44
2023-02-12T13:19:55.897Z,35.07
2023-02-12T13:22:29.012Z,35.32
2023-02-12T13:24:56.634Z,35.06
2023-02-12T13:27:27.826Z,34.94
2023-02-12T13:29:57.942Z,34.73
2023-02-12T13:32:54.625Z,34.44
2023-02-12T13:35:23.027Z,34.33
2023-02-12T13:37:51.967Z,34.74
2023-02-12T13:40:20.420Z,37.93
2023-02-12T13:43:06.327Z,39.40
2023-02-12T13:45:33.697Z,40.90
2023-02-12T13:48:12.986Z,40.72
2023-02-12T13:50:50.077Z,39.98
2023-02-12T13:53:26.167Z,38.59
2023-02-12T13:55:56.913Z,39.40
2023-02-12T13:58:40.194Z,39.23
2023-02-12T14:01:14.782Z,38.01
2023-02-12T14:03:42.279Z,38.42
2023-02-12T14:06:20.444Z,39.13
2023-02-12T14:08:49.872Z,40.16
2023-02-12T14:11:18.570Z,40.69
2023-02-12T14:13:47.333Z,39.96
2023-02-12T14:16:19.565Z,39.37
2023-02-12T14:18:46.961Z,38.66
2023-02-12T14:21:17.022Z,38.81
2023-02-12T14:23:45.918Z,38.97
2023-02-12T14:26:19.585Z,38.67
2023-02-12T14:28:48.912Z,38.31
2023-02-12T14:31:21.333Z,38.01
2023-02-12T14:33:49.712Z,38.26
2023-02-12T14:36:32.601Z,39.90
2023-02-12T14:39:01.840Z,39.78
2023-02-12T14:41:41.727Z,40.09
2023-02-12T14:44:23.284Z,38.38
2023-02-12T14:46:51.735Z,38.08
2023-02-12T14:49:19.318Z,38.37
2023-02-12T14:52:05.560Z,37.74
2023-02-12T14:54:37.214Z,38.64
2023-02-12T14:57:09.274Z,40.76
2023-02-12T14:59:40.564Z,39.06
2023-02-12T15:02:08.390Z,38.57
2023-02-12T15:04:39.750Z,38.06
2023-02-12T15:07:08.640Z,38.63
2023-02-12T15:09:36.979Z,39.14
2023-02-12T15:12:26.587Z,37.65
2023-02-12T15:15:20.467Z,37.30
2023-02-12T15:17:58.420Z,37.64
2023-02-12T15:20:46.279Z,37.98
2023-02-12T15:23:33.353Z,37.98
2023-02-12T15:26:01.035Z,39.15
2023-02-12T15:28:33.513Z,38.24
2023-02-12T15:31:02.106Z,38.92
2023-02-12T15:33:33.450Z,38.05
2023-02-12T15:36:01.401Z,38.15
2023-02-12T15:38:33.664Z,38.29
2023-02-12T15:41:01.897Z,37.58
2023-02-12T15:43:32.080Z,38.02
2023-02-12T15:45:59.496Z,38.52
2023-02-12T15:48:32.447Z,38.04
2023-02-12T15:51:15.241Z,38.46
2023-02-12T15:53:42.995Z,37.64
2023-02-12T15:56:12.260Z,37.45
2023-02-12T15:58:42.426Z,37.88
2023-02-12T16:01:14.159Z,38.22
2023-02-12T16:03:41.744Z,37.30
2023-02-12T16:06:16.908Z,37.44
2023-02-12T16:08:45.743Z,37.17
2023-02-12T16:11:16.149Z,38.41
2023-02-12T16:13:46.810Z,39.91
2023-02-12T16:16:14.470Z,39.50
2023-02-12T16:18:42.139Z,38.66
2023-02-12T16:21:12.429Z,38.97
2023-02-12T16:23:42.552Z,38.98
2023-02-12T16:26:12.983Z,38.82
2023-02-12T16:28:40.616Z,38.80
2023-02-12T16:31:09.072Z,38.75
2023-02-12T16:33:48.626Z,38.84
2023-02-12T16:36:16.309Z,39.64
2023-02-12T16:38:44.787Z,40.63
2023-02-12T16:41:25.321Z,41.64
2023-02-12T16:44:01.968Z,40.47
2023-02-12T16:46:32.906Z,39.82
2023-02-12T16:49:00.875Z,39.32
2023-02-12T16:51:29.542Z,39.29
2023-02-12T16:53:57.771Z,39.36
2023-02-12T16:56:27.322Z,39.35
2023-02-12T16:58:57.173Z,39.53
2023-02-12T17:01:28.946Z,40.47
2023-02-12T17:03:57.756Z,39.62
2023-02-12T17:06:26.464Z,40.11
2023-02-12T17:08:53.935Z,39.59
2023-02-12T17:11:23.153Z,39.87
2023-02-12T17:13:51.663Z,40.33
2023-02-12T17:16:30.218Z,40.19
2023-02-12T17:18:59.119Z,40.32
2023-02-12T17:21:55.705Z,40.04
2023-02-12T17:24:24.601Z,41.67
2023-02-12T17:26:52.424Z,40.82
2023-02-12T17:29:20.507Z,43.37
2023-02-12T17:31:48.467Z,43.12
2023-02-12T17:34:16.573Z,41.84
2023-02-12T17:36:44.060Z,41.10
2023-02-12T17:39:12.904Z,41.34
2023-02-12T17:41:40.872Z,41.16
2023-02-12T17:44:08.386Z,40.62
2023-02-12T17:46:36.026Z,40.83
2023-02-12T17:49:03.993Z,41.37
2023-02-12T17:51:31.448Z,41.05
2023-02-12T17:53:59.224Z,41.57
2023-02-12T17:56:26.720Z,41.51
2023-02-12T17:58:54.357Z,41.56
2023-02-12T18:01:22.517Z,41.48
2023-02-12T18:03:53.769Z,40.38
2023-02-12T18:06:25.771Z,40.76
2023-02-12T18:08:53.557Z,40.70
2023-02-12T18:11:20.812Z,40.62
2023-02-12T18:13:48.276Z,40.61
2023-02-12T18:16:16.410Z,40.28
2023-02-12T18:18:43.884Z,40.00
2023-02-12T18:21:12.293Z,39.34
2023-02-12T18:23:40.103Z,39.97
2023-02-12T18:26:08.759Z,39.56
2023-02-12T18:28:36.391Z,39.45
2023-02-12T18:31:04.723Z,39.32
2023-02-12T18:33:33.109Z,39.26
2023-02-12T18:36:05.649Z,39.35
2023-02-12T18:38:35.227Z,40.05
2023-02-12T18:41:09.681Z,39.98
2023-02-12T18:43:37.378Z,40.34
2023-02-12T18:46:08.388Z,39.99
2023-02-12T18:48:37.106Z,39.62
2023-02-12T18:51:05.470Z,40.74
2023-02-12T18:53:32.943Z,39.68
2023-02-12T18:56:03.459Z,38.78
2023-02-12T18:58:31.228Z,38.87
2023-02-12T19:00:59.002Z,38.55
2023-02-12T19:03:26.864Z,38.28
2023-02-12T19:05:54.527Z,39.58
2023-02-12T19:08:21.990Z,39.59
2023-02-12T19:10:49.589Z,39.56
2023-02-12T19:13:17.334Z,39.32
2023-02-12T19:15:44.805Z,38.94
2023-02-12T19:18:12.635Z,39.07
2023-02-12T19:20:40.496Z,38.74
2023-02-12T19:23:08.071Z,38.29
2023-02-12T19:25:39.694Z,38.31
2023-02-12T19:28:07.323Z,38.63
2023-02-12T19:30:36.142Z,38.53
2023-02-12T19:33:03.793Z,38.77
2023-02-12T19:35:31.563Z,39.84
2023-02-12T19:37:59.013Z,39.69
2023-02-12T19:40:26.340Z,39.46
2023-02-12T19:42:54.202Z,39.65
2023-02-12T19:45:21.646Z,39.92
2023-02-12T19:47:50.749Z,39.62
2023-02-12T19:50:18.873Z,39.41
2023-02-12T19:52:46.396Z,39.82
2023-02-12T19:55:13.757Z,39.90
2023-02-12T19:57:41.377Z,39.89
2023-02-12T20:00:08.988Z,40.07
2023-02-12T20:02:36.716Z,40.09
2023-02-12T20:05:04.249Z,40.05
2023-02-12T20:07:31.736Z,40.22
2023-02-12T20:09:59.339Z,41.18
2023-02-12T20:12:26.525Z,40.72
2023-02-12T20:14:54.589Z,40.81
2023-02-12T20:17:22.601Z,40.83
2023-02-12T20:19:49.980Z,41.14
2023-02-12T20:22:17.394Z,41.02
2023-02-12T20:24:45.018Z,40.92
2023-02-12T20:27:12.959Z,41.01
2023-02-12T20:29:40.556Z,40.90
2023-02-12T20:32:08.599Z,42.03
2023-02-12T20:34:49.979Z,42.34
2023-02-12T20:37:18.869Z,42.78
2023-02-12T20:39:46.284Z,42.68
2023-02-12T20:42:13.798Z,42.18
2023-02-12T20:44:41.487Z,42.49
2023-02-12T20:47:08.676Z,43.21
2023-02-12T20:49:35.882Z,43.01
2023-02-12T20:52:03.645Z,42.61
2023-02-12T20:54:31.044Z,41.73
2023-02-12T20:56:59.512Z,42.38
2023-02-12T20:59:27.231Z,43.24
2023-02-12T21:01:54.746Z,41.67
2023-02-12T21:04:22.179Z,41.17
2023-02-12T21:06:49.942Z,41.08
2023-02-12T21:09:17.550Z,41.11
2023-02-12T21:11:45.860Z,41.85
2023-02-12T21:14:23.488Z,41.84
2023-02-12T21:16:55.019Z,42.27
2023-02-12T21:19:22.966Z,42.19
2023-02-12T21:21:50.392Z,42.16
2023-02-12T21:24:18.844Z,42.93
2023-02-12T21:26:46.485Z,43.20
2023-02-12T21:29:14.023Z,43.12
2023-02-12T21:31:42.321Z,43.83
2023-02-12T21:34:11.542Z,43.55
2023-02-12T21:36:39.344Z,43.39
2023-02-12T21:39:07.112Z,43.35
2023-02-12T21:41:35.792Z,43.04
2023-02-12T21:44:04.170Z,43.30
2023-02-12T21:46:31.304Z,43.61
2023-02-12T21:48:58.779Z,46.23
2023-02-12T21:51:26.886Z,45.52
2023-02-12T21:53:56.371Z,46.18
2023-02-12T21:56:24.046Z,45.63
2023-02-12T21:58:51.508Z,44.37
2023-02-12T22:01:19.776Z,43.37
2023-02-12T22:03:47.298Z,43.24
2023-02-12T22:06:14.807Z,43.10
2023-02-12T22:08:41.931Z,44.27
2023-02-12T22:11:10.385Z,43.97
2023-02-12T22:13:37.678Z,46.81
2023-02-12T22:16:11.321Z,46.72
2023-02-12T22:18:38.993Z,45.25
2023-02-12T22:21:07.294Z,45.83
2023-02-12T22:23:34.755Z,48.38
2023-02-12T22:26:06.323Z,48.93
2023-02-12T22:28:33.789Z,48.05
2023-02-12T22:31:05.042Z,50.49
2023-02-12T22:33:32.468Z,49.02
2023-02-12T22:36:05.192Z,50.49
2023-02-12T22:38:36.310Z,51.08
2023-02-12T22:41:03.719Z,48.26
2023-02-12T22:43:31.947Z,47.79
2023-02-12T22:45:59.614Z,49.35
2023-02-12T22:48:28.211Z,49.07
2023-02-12T22:50:55.910Z,48.51
2023-02-12T22:53:23.967Z,51.04
2023-02-12T22:55:51.273Z,52.23
2023-02-12T22:58:18.791Z,52.84
2023-02-12T23:00:46.252Z,51.96
2023-02-12T23:03:13.446Z,51.63
2023-02-12T23:05:40.658Z,50.04
2023-02-12T23:08:08.058Z,49.43
2023-02-12T23:10:35.222Z,50.88
2023-02-12T23:13:02.906Z,49.46
2023-02-12T23:15:30.931Z,47.88
2023-02-12T23:17:58.084Z,49.73
2023-02-12T23:20:25.257Z,51.16
2023-02-12T23:22:52.709Z,50.16
2023-02-12T23:25:19.891Z,51.72
2023-02-12T23:27:47.100Z,49.30
2023-02-12T23:30:14.715Z,51.18
2023-02-12T23:32:41.941Z,50.38
2023-02-12T23:35:09.130Z,51.23
2023-02-12T23:37:36.560Z,49.93
2023-02-12T23:40:03.785Z,51.06
2023-02-12T23:42:30.926Z,49.76
2023-02-12T23:44:58.352Z,50.25
2023-02-12T23:47:25.462Z,50.32
2023-02-12T23:49:52.666Z,50.21
2023-02-12T23:52:20.092Z,49.44
2023-02-12T23:54:47.219Z,49.35
2023-02-12T23:57:14.468Z,49.26
2023-02-12T23:59:41.874Z,49.18
